Wind From: 23-02-2020 01:00 Until: 13:00 warning for: Wind Level: Yellow info button
Extreme low temperature From: 23-02-2020 19:00 Until: 24-02-2020 00:59 warning for: Extreme low temperature Level: Yellow info button

Οι άλλοι ιστότοποί μου:

SYKIA HOMEWEATHERSTATIONsikeaweather.alinos.eu

SYKIA METEOTEMPLATEsykiameteo.alinos.eu

alinos.eualinos.eu



Αναφορές γειτονικών METAR

   
LGEL - Elefsis (hel-Afb, Greece
Απόσταση από τον σταθμό: Α 77 km
Ενημερώθηκε: 23-02-2020 08:20
Σχεδόν νεφελώδης  
Σχεδόν νεφελώδης  
   Ανεμος: ΒΒΔ 13 km/h
Ανεμος: ΒΒΔ 13 km/h
Θερμοκρασία: 7°C
Αίσθηση ψύχους: 4°C
Σημείο Δρόσου: 3°C
Υγρασία: 76%
Βαρόμετρο: 1025 hPa
Νεφώσεις: Σχεδόν νεφελώδης
Ορατότητα: More than 10 km
Στοιχεία νεφών: Διάσπαρτα νέφη 1200 ft,
Σχεδόν νεφελώδης 2500 ft,
Σχεδόν νεφελώδης 7000 ft
LGEL 230620Z 33007KT 9999 FEW012 BKN025 BKN070 07/03 Q1025
LGRX - Araxos (civ/Afb), Greece
Απόσταση από τον σταθμό: Δ 110 km
Ενημερώθηκε: 23-02-2020 08:20
Αίθριος  
Αίθριος  
   Ανεμος: Απνοια
Ανεμος: Απνοια
Θερμοκρασία: 3°C
Σημείο Δρόσου: 0°C
Υγρασία: 81%
Βαρόμετρο: 1026 hPa
Ορατότητα: More than 10 km
Στοιχεία νεφών: Αίθριος
LGRX 230620Z 00000KT CAVOK 03/00 Q1026
LGAV - Athens/Elef-Ven, Greece
Απόσταση από τον σταθμό: Α 113 km
Ενημερώθηκε: 23-02-2020 08:20
Μερικώς νεφελώδης  
Μερικώς νεφελώδης  
   Ανεμος: Βόρια 25.9 km/h
Ανεμος: Βόρια 25.9 km/h
Θερμοκρασία: 9°C
Αίσθηση ψύχους: 6°C
Σημείο Δρόσου: 1°C
Υγρασία: 58%
Βαρόμετρο: 1025 hPa
Νεφώσεις: Μερικώς νεφελώδης
Ορατότητα: More than 10 km
Στοιχεία νεφών: Μερικώς νεφελώδης 3000 ft
LGAV 230620Z 36014KT 9999 SCT030 09/01 Q1025 NOSIG
LGAD - Andravida (civ/A, Greece
Απόσταση από τον σταθμό: Δ 124 km
Ενημερώθηκε: 23-02-2020 01:50
ΟΧΙ Τωρινό
Αίθριος  
Αίθριος  
   Ανεμος: Απνοια
Ανεμος: Απνοια
Θερμοκρασία: 4°C
Σημείο Δρόσου: -1°C
Υγρασία: 70%
Βαρόμετρο: 1027 hPa
Ορατότητα: More than 10 km
Στοιχεία νεφών: Αίθριος
LGAD 222350Z 00000KT CAVOK 04/M01 Q1027
LGKL - Kalamata (hel-Af, Greece
Απόσταση από τον σταθμό: ΝΝΔ 124 km
Ενημερώθηκε: 23-02-2020 08:20
Ομίχλη, Διάσπαρτα νέφη  
Ομίχλη, Διάσπαρτα νέφη  
   Ανεμος: Βόρια 11.1 km/h
Ανεμος: Βόρια 11.1 km/h
Θερμοκρασία: 6°C
Αίσθηση ψύχους: 4°C
Σημείο Δρόσου: -1°C
Υγρασία: 61%
Βαρόμετρο: 1026 hPa
Νεφώσεις: Διάσπαρτα νέφη
Ορατότητα: 8 km
Στοιχεία νεφών: Διάσπαρτα νέφη 8000 ft
LGKL 230620Z 36006KT 8000 3000SE BR FEW080 06/M01 Q1026
LGBL - Nea Anchialos, Greece
Απόσταση από τον σταθμό: Β 129 km
Ενημερώθηκε: 23-02-2020 08:20
Διάσπαρτα νέφη  
Διάσπαρτα νέφη  
   Ανεμος: Δυτικά 14.8 km/h
Ανεμος: Δυτικά 14.8 km/h
Θερμοκρασία: 5°C
Αίσθηση ψύχους: 2°C
Σημείο Δρόσου: -12°C
Υγρασία: 28%
Βαρόμετρο: 1028 hPa
Νεφώσεις: Διάσπαρτα νέφη
Ορατότητα: More than 10 km
Στοιχεία νεφών: Διάσπαρτα νέφη 3000 ft
LGBL 230620Z 27008KT 9999 FEW030 05/M12 Q1028

Αρχική γραφή από  Saratoga-weather.org Προσαρμογή στον ιστότοπο από  Weerstation Leuven

Βλέπε επίσης τις ενημερώσεις τού σταθμού μας στα παρακάτω δίκτυα:

European Weather Network

Weather Underground

AWEKAS

Citizen Weather Observer Program (CWOP)

HAMweather, WeatherForYou, PWS Weather

UK Metoffice

Equipment we use:

Μετεωρολογικός σταθμός
Davis Wireless Vantage Pro2

Davis Wireless Vantage Pro2